sensor_id;sensor_type;location;lat;lon;timestamp;pressure;altitude;pressure_sealevel;temperature;humidity
61710;BME280;73500;51.494;5.386;2023-12-04T00:02:20;101176.41;;;18.57;32.71
61710;BME280;73500;51.494;5.386;2023-12-04T00:04:45;101174.72;;;18.56;32.73
61710;BME280;73500;51.494;5.386;2023-12-04T00:07:10;101171.38;;;18.54;32.62
61710;BME280;73500;51.494;5.386;2023-12-04T00:09:35;101168.84;;;18.53;32.44
61710;BME280;73500;51.494;5.386;2023-12-04T00:12:00;101165.50;;;18.51;32.69
61710;BME280;73500;51.494;5.386;2023-12-04T00:14:26;101160.34;;;18.49;32.64
61710;BME280;73500;51.494;5.386;2023-12-04T00:16:51;101161.28;;;18.48;32.46
61710;BME280;73500;51.494;5.386;2023-12-04T00:19:16;101160.56;;;18.46;32.72
61710;BME280;73500;51.494;5.386;2023-12-04T00:21:41;101156.25;;;18.45;32.60
61710;BME280;73500;51.494;5.386;2023-12-04T00:24:06;101158.06;;;18.44;32.69
61710;BME280;73500;51.494;5.386;2023-12-04T00:26:32;101150.25;;;18.43;32.63
61710;BME280;73500;51.494;5.386;2023-12-04T00:28:57;101142.47;;;18.41;32.54
61710;BME280;73500;51.494;5.386;2023-12-04T00:31:22;101134.66;;;18.40;32.67
61710;BME280;73500;51.494;5.386;2023-12-04T00:33:47;101144.38;;;18.39;32.55
61710;BME280;73500;51.494;5.386;2023-12-04T00:36:13;101141.88;;;18.38;32.65
61710;BME280;73500;51.494;5.386;2023-12-04T00:38:38;101137.53;;;18.37;32.61
61710;BME280;73500;51.494;5.386;2023-12-04T00:41:03;101136.81;;;18.35;32.68
61710;BME280;73500;51.494;5.386;2023-12-04T00:43:29;101131.66;;;18.33;32.44
61710;BME280;73500;51.494;5.386;2023-12-04T00:45:54;101136.00;;;18.34;32.64
61710;BME280;73500;51.494;5.386;2023-12-04T00:48:19;101130.84;;;18.33;32.59
61710;BME280;73500;51.494;5.386;2023-12-04T00:50:44;101130.84;;;18.33;32.56
61710;BME280;73500;51.494;5.386;2023-12-04T00:53:09;101127.34;;;18.32;32.52
61710;BME280;73500;51.494;5.386;2023-12-04T00:55:34;101124.69;;;18.32;32.58
61710;BME280;73500;51.494;5.386;2023-12-04T00:58:00;101123.03;;;18.31;32.47
61710;BME280;73500;51.494;5.386;2023-12-04T01:00:25;101121.34;;;18.30;32.32
61710;BME280;73500;51.494;5.386;2023-12-04T01:02:51;101109.97;;;18.29;32.59
61710;BME280;73500;51.494;5.386;2023-12-04T01:05:16;101107.31;;;18.29;32.39
61710;BME280;73500;51.494;5.386;2023-12-04T01:07:41;101105.63;;;18.28;32.45
61710;BME280;73500;51.494;5.386;2023-12-04T01:10:07;101103.94;;;18.27;32.45
61710;BME280;73500;51.494;5.386;2023-12-04T01:12:32;101104.91;;;18.26;32.27
61710;BME280;73500;51.494;5.386;2023-12-04T01:14:57;101106.69;;;18.26;32.48
61710;BME280;73500;51.494;5.386;2023-12-04T01:17:22;101107.69;;;18.25;32.54
61710;BME280;73500;51.494;5.386;2023-12-04T01:19:47;101105.16;;;18.23;32.21
61710;BME280;73500;51.494;5.386;2023-12-04T01:22:13;101104.28;;;18.23;32.35
61710;BME280;73500;51.494;5.386;2023-12-04T01:24:38;101094.72;;;18.22;32.29
61710;BME280;73500;51.494;5.386;2023-12-04T01:27:03;101092.19;;;18.20;32.18
61710;BME280;73500;51.494;5.386;2023-12-04T01:29:28;101086.06;;;18.20;32.31
61710;BME280;73500;51.494;5.386;2023-12-04T01:31:54;101086.06;;;18.20;32.30
61710;BME280;73500;51.494;5.386;2023-12-04T01:34:19;101081.78;;;18.19;32.48
61710;BME280;73500;51.494;5.386;2023-12-04T01:36:44;101077.44;;;18.18;32.43
61710;BME280;73500;51.494;5.386;2023-12-04T01:39:10;101083.69;;;18.17;32.45
61710;BME280;73500;51.494;5.386;2023-12-04T01:41:35;101078.41;;;18.17;32.30
61710;BME280;73500;51.494;5.386;2023-12-04T01:44:00;101084.66;;;18.16;32.38
61710;BME280;73500;51.494;5.386;2023-12-04T01:46:25;101075.03;;;18.15;32.37
61710;BME280;73500;51.494;5.386;2023-12-04T01:48:50;101073.38;;;18.13;32.13
61710;BME280;73500;51.494;5.386;2023-12-04T01:51:16;101067.25;;;18.13;32.47
61710;BME280;73500;51.494;5.386;2023-12-04T01:53:42;101071.69;;;18.12;32.26
61710;BME280;73500;51.494;5.386;2023-12-04T01:56:07;101066.53;;;18.11;32.17
61710;BME280;73500;51.494;5.386;2023-12-04T01:58:33;101064.84;;;18.10;32.22
61710;BME280;73500;51.494;5.386;2023-12-04T02:00:59;101055.28;;;18.09;32.35
61710;BME280;73500;51.494;5.386;2023-12-04T02:03:24;101045.66;;;18.08;32.10
61710;BME280;73500;51.494;5.386;2023-12-04T02:05:50;101047.47;;;18.07;32.25
61710;BME280;73500;51.494;5.386;2023-12-04T02:08:16;101044.97;;;18.06;32.36
61710;BME280;73500;51.494;5.386;2023-12-04T02:10:42;101039.69;;;18.06;32.30
61710;BME280;73500;51.494;5.386;2023-12-04T02:13:07;101040.63;;;18.05;32.31
61710;BME280;73500;51.494;5.386;2023-12-04T02:15:33;101035.47;;;18.03;32.22
61710;BME280;73500;51.494;5.386;2023-12-04T02:17:58;101036.31;;;18.04;32.38
61710;BME280;73500;51.494;5.386;2023-12-04T02:20:33;101030.31;;;18.02;32.18
61710;BME280;73500;51.494;5.386;2023-12-04T02:22:58;101035.59;;;18.02;32.16
61710;BME280;73500;51.494;5.386;2023-12-04T02:25:24;101030.44;;;18.00;32.26
61710;BME280;73500;51.494;5.386;2023-12-04T02:27:49;101027.91;;;17.99;32.30
61710;BME280;73500;51.494;5.386;2023-12-04T02:30:15;101024.44;;;17.98;32.10
61710;BME280;73500;51.494;5.386;2023-12-04T02:32:44;101030.56;;;17.99;32.18
61710;BME280;73500;51.494;5.386;2023-12-04T02:35:10;101016.66;;;17.97;32.30
61710;BME280;73500;51.494;5.386;2023-12-04T02:37:36;101017.50;;;17.97;32.33
61710;BME280;73500;51.494;5.386;2023-12-04T02:40:01;101015.81;;;17.96;32.26
61710;BME280;73500;51.494;5.386;2023-12-04T02:42:27;101015.94;;;17.94;32.42
61710;BME280;73500;51.494;5.386;2023-12-04T02:44:52;101006.34;;;17.93;32.05
61710;BME280;73500;51.494;5.386;2023-12-04T02:47:18;101003.84;;;17.92;32.42
61710;BME280;73500;51.494;5.386;2023-12-04T02:49:43;101003.72;;;17.93;32.28
61710;BME280;73500;51.494;5.386;2023-12-04T02:52:08;100991.47;;;17.92;32.07
61710;BME280;73500;51.494;5.386;2023-12-04T02:54:33;100990.66;;;17.92;32.14
61710;BME280;73500;51.494;5.386;2023-12-04T02:56:59;100985.50;;;17.90;32.06
61710;BME280;73500;51.494;5.386;2023-12-04T02:59:24;100985.50;;;17.90;32.17
61710;BME280;73500;51.494;5.386;2023-12-04T03:01:49;100987.31;;;17.90;32.01
61710;BME280;73500;51.494;5.386;2023-12-04T03:04:14;100978.53;;;17.89;32.30
61710;BME280;73500;51.494;5.386;2023-12-04T03:06:39;100977.69;;;17.89;32.16
61710;BME280;73500;51.494;5.386;2023-12-04T03:09:05;100980.34;;;17.89;32.23
61710;BME280;73500;51.494;5.386;2023-12-04T03:11:30;100966.31;;;17.88;32.27
61710;BME280;73500;51.494;5.386;2023-12-04T03:13:55;100970.75;;;17.88;32.03
61710;BME280;73500;51.494;5.386;2023-12-04T03:16:20;100963.69;;;17.88;31.94
61710;BME280;73500;51.494;5.386;2023-12-04T03:18:45;100960.28;;;17.86;32.21
61710;BME280;73500;51.494;5.386;2023-12-04T03:21:11;100951.53;;;17.86;32.03
61710;BME280;73500;51.494;5.386;2023-12-04T03:23:36;100949.03;;;17.84;31.95
61710;BME280;73500;51.494;5.386;2023-12-04T03:26:01;100940.16;;;17.85;31.83
61710;BME280;73500;51.494;5.386;2023-12-04T03:28:27;100942.09;;;17.83;31.85
61710;BME280;73500;51.494;5.386;2023-12-04T03:30:52;100935.97;;;17.83;32.18
61710;BME280;73500;51.494;5.386;2023-12-04T03:33:17;100931.66;;;17.82;31.89
61710;BME280;73500;51.494;5.386;2023-12-04T03:35:43;100930.69;;;17.83;31.89
61710;BME280;73500;51.494;5.386;2023-12-04T03:38:08;100925.53;;;17.81;32.00
61710;BME280;73500;51.494;5.386;2023-12-04T03:40:33;100927.22;;;17.82;32.14
61710;BME280;73500;51.494;5.386;2023-12-04T03:42:58;100915.00;;;17.81;31.97
61710;BME280;73500;51.494;5.386;2023-12-04T03:45:24;100908.88;;;17.81;32.11
61710;BME280;73500;51.494;5.386;2023-12-04T03:47:49;100913.34;;;17.80;31.86
61710;BME280;73500;51.494;5.386;2023-12-04T03:50:14;100909.00;;;17.79;31.96
61710;BME280;73500;51.494;5.386;2023-12-04T03:52:40;100900.28;;;17.79;32.14
61710;BME280;73500;51.494;5.386;2023-12-04T03:55:06;100890.69;;;17.77;32.17
61710;BME280;73500;51.494;5.386;2023-12-04T03:57:31;100888.16;;;17.76;32.09
61710;BME280;73500;51.494;5.386;2023-12-04T03:59:57;100893.31;;;17.77;32.17
61710;BME280;73500;51.494;5.386;2023-12-04T04:02:22;100889.00;;;17.76;31.94
61710;BME280;73500;51.494;5.386;2023-12-04T04:04:47;100888.16;;;17.76;32.13
61710;BME280;73500;51.494;5.386;2023-12-04T04:07:15;100891.63;;;17.76;32.19
61710;BME280;73500;51.494;5.386;2023-12-04T04:09:40;100888.28;;;17.74;31.97
61710;BME280;73500;51.494;5.386;2023-12-04T04:12:05;100883.84;;;17.75;32.09
61710;BME280;73500;51.494;5.386;2023-12-04T04:14:31;100873.41;;;17.73;31.87
61710;BME280;73500;51.494;5.386;2023-12-04T04:16:56;100869.00;;;17.74;32.04
61710;BME280;73500;51.494;5.386;2023-12-04T04:19:21;100874.41;;;17.72;31.89
61710;BME280;73500;51.494;5.386;2023-12-04T04:21:46;100869.13;;;17.72;32.20
61710;BME280;73500;51.494;5.386;2023-12-04T04:24:12;100871.88;;;17.71;31.88
61710;BME280;73500;51.494;5.386;2023-12-04T04:26:37;100871.03;;;17.70;32.11
61710;BME280;73500;51.494;5.386;2023-12-04T04:29:02;100858.69;;;17.71;32.01
61710;BME280;73500;51.494;5.386;2023-12-04T04:31:27;100862.28;;;17.70;31.97
61710;BME280;73500;51.494;5.386;2023-12-04T04:33:52;100855.22;;;17.70;32.07
61710;BME280;73500;51.494;5.386;2023-12-04T04:36:18;100849.09;;;17.70;31.85
61710;BME280;73500;51.494;5.386;2023-12-04T04:38:43;100845.75;;;17.68;31.98
61710;BME280;73500;51.494;5.386;2023-12-04T04:41:12;100840.50;;;17.68;32.13
61710;BME280;73500;51.494;5.386;2023-12-04T04:43:38;100844.06;;;17.67;32.19
61710;BME280;73500;51.494;5.386;2023-12-04T04:46:03;100843.25;;;17.66;32.20
61710;BME280;73500;51.494;5.386;2023-12-04T04:48:28;100843.25;;;17.66;32.19
61710;BME280;73500;51.494;5.386;2023-12-04T04:50:53;100845.06;;;17.66;32.07
61710;BME280;73500;51.494;5.386;2023-12-04T04:53:18;100841.56;;;17.65;32.06
61710;BME280;73500;51.494;5.386;2023-12-04T04:55:44;100837.28;;;17.64;31.78
61710;BME280;73500;51.494;5.386;2023-12-04T04:58:09;100840.72;;;17.65;31.90
61710;BME280;73500;51.494;5.386;2023-12-04T05:00:34;100842.53;;;17.64;32.03
61710;BME280;73500;51.494;5.386;2023-12-04T05:02:59;100842.53;;;17.64;32.04
61710;BME280;73500;51.494;5.386;2023-12-04T05:05:24;100839.03;;;17.64;32.12
61710;BME280;73500;51.494;5.386;2023-12-04T05:07:50;100837.38;;;17.63;32.10
61710;BME280;73500;51.494;5.386;2023-12-04T05:10:15;100838.22;;;17.63;31.81
61710;BME280;73500;51.494;5.386;2023-12-04T05:12:40;100834.88;;;17.61;32.14
61710;BME280;73500;51.494;5.386;2023-12-04T05:15:05;100844.44;;;17.62;31.81
61710;BME280;73500;51.494;5.386;2023-12-04T05:17:31;100833.06;;;17.62;31.92
61710;BME280;73500;51.494;5.386;2023-12-04T05:19:56;100833.06;;;17.62;32.15
61710;BME280;73500;51.494;5.386;2023-12-04T05:22:21;100821.69;;;17.61;32.20
61710;BME280;73500;51.494;5.386;2023-12-04T05:24:46;100819.06;;;17.61;31.89
61710;BME280;73500;51.494;5.386;2023-12-04T05:27:12;100820.84;;;17.61;31.87
61710;BME280;73500;51.494;5.386;2023-12-04T05:29:37;100813.78;;;17.61;32.01
61710;BME280;73500;51.494;5.386;2023-12-04T05:32:03;100802.16;;;17.64;32.26
61710;BME280;73500;51.494;5.386;2023-12-04T05:34:28;100805.66;;;17.64;32.25
61710;BME280;73500;51.494;5.386;2023-12-04T05:36:53;100796.63;;;17.67;32.68
61710;BME280;73500;51.494;5.386;2023-12-04T05:39:18;100800.72;;;17.71;32.73
61710;BME280;73500;51.494;5.386;2023-12-04T05:41:43;100799.50;;;17.75;32.84
61710;BME280;73500;51.494;5.386;2023-12-04T05:44:09;100800.09;;;17.79;32.72
61710;BME280;73500;51.494;5.386;2023-12-04T05:46:34;100804.03;;;17.84;32.77
61710;BME280;73500;51.494;5.386;2023-12-04T05:48:59;100803.69;;;17.89;32.48
61710;BME280;73500;51.494;5.386;2023-12-04T05:51:24;100799.72;;;17.94;32.67
61710;BME280;73500;51.494;5.386;2023-12-04T05:53:49;100791.44;;;17.99;32.70
61710;BME280;73500;51.494;5.386;2023-12-04T05:56:15;100779.66;;;18.03;32.28
61710;BME280;73500;51.494;5.386;2023-12-04T05:58:40;100783.75;;;18.07;32.26
61710;BME280;73500;51.494;5.386;2023-12-04T06:01:05;100781.69;;;18.11;32.65
61710;BME280;73500;51.494;5.386;2023-12-04T06:03:31;100778.81;;;18.14;32.39
61710;BME280;73500;51.494;5.386;2023-12-04T06:05:56;100776.88;;;18.16;32.38
61710;BME280;73500;51.494;5.386;2023-12-04T06:08:21;100774.81;;;18.20;32.54
61710;BME280;73500;51.494;5.386;2023-12-04T06:10:46;100767.63;;;18.22;32.45
61710;BME280;73500;51.494;5.386;2023-12-04T06:13:12;100771.91;;;18.23;32.39
61710;BME280;73500;51.494;5.386;2023-12-04T06:15:37;100754.19;;;18.25;32.36
61710;BME280;73500;51.494;5.386;2023-12-04T06:18:02;100751.41;;;18.26;32.48
61710;BME280;73500;51.494;5.386;2023-12-04T06:20:27;100738.22;;;18.26;32.33
61710;BME280;73500;51.494;5.386;2023-12-04T06:22:53;100740.59;;;18.29;32.24
61710;BME280;73500;51.494;5.386;2023-12-04T06:25:18;100738.78;;;18.30;32.33
61710;BME280;73500;51.494;5.386;2023-12-04T06:27:43;100739.63;;;18.30;32.41
61710;BME280;73500;51.494;5.386;2023-12-04T06:30:09;100728.13;;;18.31;32.13
61710;BME280;73500;51.494;5.386;2023-12-04T06:32:34;100721.03;;;18.32;32.30
61710;BME280;73500;51.494;5.386;2023-12-04T06:34:59;100711.34;;;18.33;32.52
61710;BME280;73500;51.494;5.386;2023-12-04T06:37:25;100705.06;;;18.34;32.51
61710;BME280;73500;51.494;5.386;2023-12-04T06:39:50;100713.97;;;18.33;32.15
61710;BME280;73500;51.494;5.386;2023-12-04T06:42:17;100705.94;;;18.34;32.08
61710;BME280;73500;51.494;5.386;2023-12-04T06:44:42;100705.78;;;18.36;32.37
61710;BME280;73500;51.494;5.386;2023-12-04T06:47:08;100703.00;;;18.37;32.33
61710;BME280;73500;51.494;5.386;2023-12-04T06:49:33;100697.59;;;18.39;32.50
61710;BME280;73500;51.494;5.386;2023-12-04T06:51:59;100697.47;;;18.40;32.53
61710;BME280;73500;51.494;5.386;2023-12-04T06:54:24;100714.97;;;18.41;32.60
61710;BME280;73500;51.494;5.386;2023-12-04T06:56:50;100722.91;;;18.41;32.49
61710;BME280;73500;51.494;5.386;2023-12-04T06:59:15;100713.16;;;18.42;32.53
61710;BME280;73500;51.494;5.386;2023-12-04T07:01:40;100708.75;;;18.42;32.48
61710;BME280;73500;51.494;5.386;2023-12-04T07:04:05;100702.63;;;18.42;32.48
61710;BME280;73500;51.494;5.386;2023-12-04T07:06:37;100692.06;;;18.42;32.43
61710;BME280;73500;51.494;5.386;2023-12-04T07:09:02;100686.78;;;18.42;32.41
61710;BME280;73500;51.494;5.386;2023-12-04T07:11:28;100695.44;;;18.44;32.48
61710;BME280;73500;51.494;5.386;2023-12-04T07:13:53;100696.13;;;18.46;32.72
61710;BME280;73500;51.494;5.386;2023-12-04T07:16:18;100691.53;;;18.48;32.45
61710;BME280;73500;51.494;5.386;2023-12-04T07:18:44;100687.81;;;18.51;32.44
61710;BME280;73500;51.494;5.386;2023-12-04T07:21:09;100695.59;;;18.52;32.50
61710;BME280;73500;51.494;5.386;2023-12-04T07:23:34;100698.13;;;18.54;32.31
61710;BME280;73500;51.494;5.386;2023-12-04T07:26:00;100697.25;;;18.53;32.67
61710;BME280;73500;51.494;5.386;2023-12-04T07:28:25;100693.53;;;18.56;32.84
61710;BME280;73500;51.494;5.386;2023-12-04T07:30:50;100694.34;;;18.56;33.10
61710;BME280;73500;51.494;5.386;2023-12-04T07:33:16;100688.13;;;18.57;32.93
61710;BME280;73500;51.494;5.386;2023-12-04T07:35:41;100691.59;;;18.58;33.11
61710;BME280;73500;51.494;5.386;2023-12-04T07:38:06;100701.19;;;18.59;33.25
61710;BME280;73500;51.494;5.386;2023-12-04T07:40:31;100702.00;;;18.59;33.16
61710;BME280;73500;51.494;5.386;2023-12-04T07:42:57;100693.97;;;18.61;33.15
61710;BME280;73500;51.494;5.386;2023-12-04T07:45:22;100687.72;;;18.62;33.18
61710;BME280;73500;51.494;5.386;2023-12-04T07:47:48;100691.06;;;18.64;33.21
61710;BME280;73500;51.494;5.386;2023-12-04T07:50:15;100685.66;;;18.65;33.23
61710;BME280;73500;51.494;5.386;2023-12-04T07:52:40;100689.03;;;18.67;33.24
61710;BME280;73500;51.494;5.386;2023-12-04T07:55:05;100687.34;;;18.66;33.44
61710;BME280;73500;51.494;5.386;2023-12-04T07:57:31;100685.41;;;18.68;33.26
61710;BME280;73500;51.494;5.386;2023-12-04T07:59:56;100680.94;;;18.69;33.65
61710;BME280;73500;51.494;5.386;2023-12-04T08:02:21;100685.13;;;18.72;33.75
61710;BME280;73500;51.494;5.386;2023-12-04T08:04:47;100669.28;;;18.72;33.56
61710;BME280;73500;51.494;5.386;2023-12-04T08:07:12;100671.94;;;18.72;33.51
61710;BME280;73500;51.494;5.386;2023-12-04T08:09:37;100666.66;;;18.72;33.65
61710;BME280;73500;51.494;5.386;2023-12-04T08:12:02;100670.13;;;18.72;33.54
61710;BME280;73500;51.494;5.386;2023-12-04T08:14:28;100663.88;;;18.73;33.37
61710;BME280;73500;51.494;5.386;2023-12-04T08:16:53;100667.34;;;18.74;33.44
61710;BME280;73500;51.494;5.386;2023-12-04T08:19:18;100662.78;;;18.76;33.39
61710;BME280;73500;51.494;5.386;2023-12-04T08:21:44;100661.13;;;18.75;33.30
61710;BME280;73500;51.494;5.386;2023-12-04T08:24:09;100663.88;;;18.73;33.09
61710;BME280;73500;51.494;5.386;2023-12-04T08:26:34;100661.38;;;18.72;32.88
61710;BME280;73500;51.494;5.386;2023-12-04T08:28:59;100656.22;;;18.70;32.96
61710;BME280;73500;51.494;5.386;2023-12-04T08:31:24;100651.91;;;18.69;32.83
61710;BME280;73500;51.494;5.386;2023-12-04T08:33:50;100646.78;;;18.67;33.22
61710;BME280;73500;51.494;5.386;2023-12-04T08:36:15;100652.19;;;18.66;32.77
61710;BME280;73500;51.494;5.386;2023-12-04T08:38:40;100642.47;;;18.66;32.97
61710;BME280;73500;51.494;5.386;2023-12-04T08:41:07;100639.00;;;18.66;32.66
61710;BME280;73500;51.494;5.386;2023-12-04T08:43:32;100634.56;;;18.66;32.90
61710;BME280;73500;51.494;5.386;2023-12-04T08:45:57;100626.50;;;18.68;33.04
61710;BME280;73500;51.494;5.386;2023-12-04T08:48:23;100615.81;;;18.70;32.95
61710;BME280;73500;51.494;5.386;2023-12-04T08:50:48;100610.41;;;18.71;33.03
61710;BME280;73500;51.494;5.386;2023-12-04T08:53:14;100613.84;;;18.72;32.81
61710;BME280;73500;51.494;5.386;2023-12-04T08:55:39;100604.97;;;18.73;32.87
61710;BME280;73500;51.494;5.386;2023-12-04T08:58:04;100607.50;;;18.74;32.89
61710;BME280;73500;51.494;5.386;2023-12-04T09:00:29;100603.16;;;18.73;32.83
61710;BME280;73500;51.494;5.386;2023-12-04T09:02:55;100617.06;;;18.75;32.80
61710;BME280;73500;51.494;5.386;2023-12-04T09:05:20;100607.50;;;18.74;32.74
61710;BME280;73500;51.494;5.386;2023-12-04T09:07:45;100610.69;;;18.78;32.94
61710;BME280;73500;51.494;5.386;2023-12-04T09:10:11;100606.22;;;18.78;32.98
61710;BME280;73500;51.494;5.386;2023-12-04T09:12:36;100600.00;;;18.79;33.08
61710;BME280;73500;51.494;5.386;2023-12-04T09:15:03;100600.94;;;18.78;32.73
61710;BME280;73500;51.494;5.386;2023-12-04T09:17:29;100598.19;;;18.80;32.62
61710;BME280;73500;51.494;5.386;2023-12-04T09:19:54;100601.69;;;18.80;32.67
61710;BME280;73500;51.494;5.386;2023-12-04T09:22:19;100595.41;;;18.81;32.76
61710;BME280;73500;51.494;5.386;2023-12-04T09:24:45;100594.44;;;18.82;32.55
61710;BME280;73500;51.494;5.386;2023-12-04T09:27:10;100590.13;;;18.81;32.51
61710;BME280;73500;51.494;5.386;2023-12-04T09:29:35;100582.19;;;18.81;32.59
61710;BME280;73500;51.494;5.386;2023-12-04T09:32:00;100592.63;;;18.83;32.36
61710;BME280;73500;51.494;5.386;2023-12-04T09:34:26;100596.13;;;18.83;32.55
61710;BME280;73500;51.494;5.386;2023-12-04T09:36:51;100594.34;;;18.84;32.54
61710;BME280;73500;51.494;5.386;2023-12-04T09:39:16;100589.06;;;18.84;32.56
61710;BME280;73500;51.494;5.386;2023-12-04T09:41:42;100597.81;;;18.84;32.63
61710;BME280;73500;51.494;5.386;2023-12-04T09:44:07;100596.84;;;18.85;32.53
61710;BME280;73500;51.494;5.386;2023-12-04T09:46:33;100587.25;;;18.84;32.45
61710;BME280;73500;51.494;5.386;2023-12-04T09:48:59;100584.59;;;18.84;32.54
61710;BME280;73500;51.494;5.386;2023-12-04T09:51:24;100589.88;;;18.84;32.36
61710;BME280;73500;51.494;5.386;2023-12-04T09:53:51;100589.75;;;18.86;32.38
61710;BME280;73500;51.494;5.386;2023-12-04T09:56:17;100588.09;;;18.85;32.62
61710;BME280;73500;51.494;5.386;2023-12-04T09:58:43;100581.97;;;18.84;32.50
61710;BME280;73500;51.494;5.386;2023-12-04T10:01:09;100583.66;;;18.85;32.38
61710;BME280;73500;51.494;5.386;2023-12-04T10:03:36;100588.22;;;18.83;32.46
61710;BME280;73500;51.494;5.386;2023-12-04T10:06:01;100587.25;;;18.84;32.44
61710;BME280;73500;51.494;5.386;2023-12-04T10:08:27;100575.00;;;18.83;32.49
61710;BME280;73500;51.494;5.386;2023-12-04T10:10:52;100577.66;;;18.83;32.29
61710;BME280;73500;51.494;5.386;2023-12-04T10:13:17;100574.03;;;18.84;32.38
61710;BME280;73500;51.494;5.386;2023-12-04T10:15:49;100572.09;;;18.87;32.60
61710;BME280;73500;51.494;5.386;2023-12-04T10:18:24;100562.66;;;18.84;32.27
61710;BME280;73500;51.494;5.386;2023-12-04T10:20:53;100558.31;;;18.83;32.05
61710;BME280;73500;51.494;5.386;2023-12-04T10:23:19;100556.25;;;18.87;32.21
61710;BME280;73500;51.494;5.386;2023-12-04T10:25:45;100541.69;;;18.92;32.20
61710;BME280;73500;51.494;5.386;2023-12-04T10:28:12;100539.59;;;18.96;32.29
61710;BME280;73500;51.494;5.386;2023-12-04T10:30:38;100535.59;;;19.01;32.22
61710;BME280;73500;51.494;5.386;2023-12-04T10:33:04;100525.69;;;19.03;32.08
61710;BME280;73500;51.494;5.386;2023-12-04T10:35:31;100519.31;;;19.06;32.29
61710;BME280;73500;51.494;5.386;2023-12-04T10:37:56;100518.06;;;19.10;32.40
61710;BME280;73500;51.494;5.386;2023-12-04T10:40:31;100523.47;;;19.09;32.10
61710;BME280;73500;51.494;5.386;2023-12-04T10:45:37;100503.19;;;18.99;32.24
61710;BME280;73500;51.494;5.386;2023-12-04T10:48:02;100506.25;;;18.95;32.31
61710;BME280;73500;51.494;5.386;2023-12-04T10:50:31;100491.66;;;18.91;32.43
61710;BME280;73500;51.494;5.386;2023-12-04T10:52:56;100490.09;;;18.88;32.46
61710;BME280;73500;51.494;5.386;2023-12-04T10:55:23;100483.31;;;18.85;32.54
61710;BME280;73500;51.494;5.386;2023-12-04T10:57:49;100483.31;;;18.85;32.68
61710;BME280;73500;51.494;5.386;2023-12-04T11:00:15;100477.47;;;18.82;32.32
61710;BME280;73500;51.494;5.386;2023-12-04T11:02:42;100485.38;;;18.82;32.44
61710;BME280;73500;51.494;5.386;2023-12-04T11:05:12;100468.69;;;18.81;32.25
61710;BME280;73500;51.494;5.386;2023-12-04T11:07:40;100467.59;;;18.84;32.64
61710;BME280;73500;51.494;5.386;2023-12-04T11:10:06;100464.97;;;18.84;32.43
61710;BME280;73500;51.494;5.386;2023-12-04T11:12:33;100467.47;;;18.85;32.88
61710;BME280;73500;51.494;5.386;2023-12-04T11:14:59;100466.66;;;18.85;32.71
61710;BME280;73500;51.494;5.386;2023-12-04T11:17:27;100459.41;;;18.87;32.66
61710;BME280;73500;51.494;5.386;2023-12-04T11:19:59;100457.59;;;18.88;32.77
61710;BME280;73500;51.494;5.386;2023-12-04T11:22:25;100456.91;;;18.85;32.26
61710;BME280;73500;51.494;5.386;2023-12-04T11:24:51;100454.50;;;18.82;32.61
61710;BME280;73500;51.494;5.386;2023-12-04T11:27:16;100450.19;;;18.81;32.93
61710;BME280;73500;51.494;5.386;2023-12-04T11:29:42;100449.22;;;18.82;32.25
61710;BME280;73500;51.494;5.386;2023-12-04T11:32:12;100443.13;;;18.82;32.63
61710;BME280;73500;51.494;5.386;2023-12-04T11:34:37;100436.16;;;18.81;32.79
61710;BME280;73500;51.494;5.386;2023-12-04T11:37:12;100432.44;;;18.83;32.85
61710;BME280;73500;51.494;5.386;2023-12-04T11:39:38;100429.06;;;18.81;32.60
61710;BME280;73500;51.494;5.386;2023-12-04T11:42:06;100423.09;;;18.79;32.93
61710;BME280;73500;51.494;5.386;2023-12-04T11:44:31;100422.28;;;18.79;32.94
61710;BME280;73500;51.494;5.386;2023-12-04T11:46:58;100419.78;;;18.77;32.71
61710;BME280;73500;51.494;5.386;2023-12-04T11:49:30;100415.19;;;18.79;33.01
61710;BME280;73500;51.494;5.386;2023-12-04T11:51:56;100402.00;;;18.79;33.05
61710;BME280;73500;51.494;5.386;2023-12-04T11:54:22;100416.16;;;18.78;33.37
61710;BME280;73500;51.494;5.386;2023-12-04T11:56:59;100407.41;;;18.78;33.04
61710;BME280;73500;51.494;5.386;2023-12-04T11:59:25;100400.44;;;18.77;32.92
61710;BME280;73500;51.494;5.386;2023-12-04T12:01:53;100398.81;;;18.76;32.95
61710;BME280;73500;51.494;5.386;2023-12-04T12:04:18;100379.59;;;18.74;32.95
61710;BME280;73500;51.494;5.386;2023-12-04T12:06:44;100378.78;;;18.73;33.03
61710;BME280;73500;51.494;5.386;2023-12-04T12:09:09;100361.56;;;18.79;32.83
61710;BME280;73500;51.494;5.386;2023-12-04T12:11:35;100362.94;;;18.73;32.59
61710;BME280;73500;51.494;5.386;2023-12-04T12:14:01;100351.56;;;18.73;32.57
61710;BME280;73500;51.494;5.386;2023-12-04T12:16:26;100354.34;;;18.71;32.90
61710;BME280;73500;51.494;5.386;2023-12-04T12:18:51;100343.78;;;18.71;33.01
61710;BME280;73500;51.494;5.386;2023-12-04T12:21:17;100338.50;;;18.71;33.23
61710;BME280;73500;51.494;5.386;2023-12-04T12:23:42;100331.28;;;18.73;33.42
61710;BME280;73500;51.494;5.386;2023-12-04T12:26:08;100326.97;;;18.72;33.17
61710;BME280;73500;51.494;5.386;2023-12-04T12:28:34;100326.97;;;18.72;33.15
61710;BME280;73500;51.494;5.386;2023-12-04T12:31:03;100323.50;;;18.72;33.03
61710;BME280;73500;51.494;5.386;2023-12-04T12:33:28;100331.81;;;18.77;33.05
61710;BME280;73500;51.494;5.386;2023-12-04T12:35:54;100332.53;;;18.79;33.04
61710;BME280;73500;51.494;5.386;2023-12-04T12:38:20;100335.03;;;18.80;33.24
61710;BME280;73500;51.494;5.386;2023-12-04T12:40:45;100327.09;;;18.80;32.82
61710;BME280;73500;51.494;5.386;2023-12-04T12:43:11;100328.91;;;18.80;32.77
61710;BME280;73500;51.494;5.386;2023-12-04T12:45:42;100324.47;;;18.80;32.94